Time;durP1;ratioP1;P1;durP2;ratioP2;P2;SDS_P1;SDS_P2;PMS_P1;PMS_P2;Temp;Humidity;BMP_temperature;BMP_pressure;BME280_temperature;BME280_humidity;BME280_pressure;Samples;Min_cycle;Max_cycle;Signal;HPM_P1;HPM_P2
2021/08/19 00:00:23;;;;;;;18.35;10.20;;;;;;;21.57;77.01;99825.16;5090690;28;20028;-22
2021/08/19 00:02:49;;;;;;;17.42;10.02;;;;;;;21.73;75.30;99856.38;5090804;28;20039;-23
2021/08/19 00:05:14;;;;;;;14.07;9.90;;;;;;;22.05;74.44;99830.28;5090844;28;20028;-22
2021/08/19 00:07:40;;;;;;;15.85;9.43;;;;;;;21.75;74.76;99831.66;5090934;28;20039;-23
2021/08/19 00:10:05;;;;;;;15.40;9.85;;;;;;;21.37;74.00;99840.69;5090253;28;20465;-22
2021/08/19 00:12:31;;;;;;;16.98;10.65;;;;;;;21.19;75.75;99842.31;5090607;28;20115;-22
2021/08/19 00:14:56;;;;;;;17.88;9.77;;;;;;;21.09;76.34;99828.09;5090683;28;20025;-22
2021/08/19 00:17:22;;;;;;;16.50;10.13;;;;;;;21.49;75.62;99842.13;5090934;28;20705;-22
2021/08/19 00:19:47;;;;;;;16.42;10.20;;;;;;;21.75;74.69;99843.31;5090462;28;20032;-22
2021/08/19 00:22:13;;;;;;;15.05;9.48;;;;;;;21.86;74.06;99852.88;5090363;28;20077;-22
2021/08/19 00:24:38;;;;;;;14.02;8.85;;;;;;;21.99;72.47;99834.19;5072360;28;20035;-22
2021/08/19 00:27:04;;;;;;;16.77;9.15;;;;;;;21.89;72.83;99821.59;5090221;28;20036;-22
2021/08/19 00:29:29;;;;;;;12.95;8.98;;;;;;;21.88;73.36;99830.84;5090240;28;20035;-22
2021/08/19 00:31:55;;;;;;;14.02;9.07;;;;;;;21.86;73.16;99827.63;5090281;28;20492;-22
2021/08/19 00:34:20;;;;;;;14.98;9.23;;;;;;;21.95;72.50;99825.03;5089911;28;20414;-22
2021/08/19 00:36:46;;;;;;;14.35;9.55;;;;;;;22.14;72.61;99830.38;5090308;28;20027;-22
2021/08/19 00:39:11;;;;;;;13.52;9.27;;;;;;;22.01;73.61;99824.63;5090221;28;20036;-23
2021/08/19 00:41:37;;;;;;;13.27;9.18;;;;;;;22.24;72.88;99838.34;5090037;28;20039;-22
2021/08/19 00:44:04;;;;;;;15.07;9.25;;;;;;;22.44;70.46;99835.22;5089718;28;20050;-22
2021/08/19 00:46:34;;;;;;;12.67;9.40;;;;;;;22.32;71.81;99837.63;5072056;28;20103;-22
2021/08/19 00:49:08;;;;;;;16.15;9.95;;;;;;;22.46;70.96;99833.00;5090124;28;20294;-22
2021/08/19 00:51:45;;;;;;;14.15;9.75;;;;;;;22.12;72.89;99829.88;5090282;28;20028;-22
2021/08/19 00:54:13;;;;;;;15.87;9.67;;;;;;;22.01;72.03;99818.41;5071573;28;20024;-23
2021/08/19 00:56:39;;;;;;;18.13;10.23;;;;;;;22.39;71.32;99835.34;5089630;28;20515;-23
2021/08/19 00:59:05;;;;;;;13.52;8.90;;;;;;;22.54;71.36;99826.06;5089821;28;20052;-22
2021/08/19 01:01:31;;;;;;;13.75;9.60;;;;;;;22.45;72.43;99845.00;5089458;28;20044;-23
2021/08/19 01:03:58;;;;;;;16.73;9.40;;;;;;;22.22;73.04;99835.91;5088744;28;20059;-22
2021/08/19 01:06:24;;;;;;;14.65;9.50;;;;;;;21.73;75.41;99845.50;5089805;28;20032;-22
2021/08/19 01:08:50;;;;;;;13.73;8.70;;;;;;;21.53;74.35;99824.94;5089670;28;20035;-22
2021/08/19 01:11:15;;;;;;;12.95;8.80;;;;;;;21.61;74.23;99829.69;5071619;28;20173;-22
2021/08/19 01:13:41;;;;;;;14.23;8.73;;;;;;;21.90;74.00;99841.41;5089325;28;20028;-22
2021/08/19 01:16:06;;;;;;;13.43;8.80;;;;;;;21.84;74.02;99835.25;5089239;28;20039;-23
2021/08/19 01:18:43;;;;;;;15.88;9.13;;;;;;;22.00;73.46;99828.44;5089356;28;20480;-22
2021/08/19 01:21:09;;;;;;;14.32;9.07;;;;;;;21.87;74.73;99840.09;5089266;28;20024;-22
2021/08/19 01:23:34;;;;;;;12.45;8.93;;;;;;;21.82;74.91;99840.19;5070975;28;20040;-22
2021/08/19 01:26:06;;;;;;;14.48;8.60;;;;;;;21.54;76.03;99837.44;5089217;28;20024;-22
2021/08/19 01:28:33;;;;;;;13.50;9.30;;;;;;;21.51;76.21;99843.44;5089459;28;20028;-22
2021/08/19 01:30:58;;;;;;;13.77;9.17;;;;;;;21.55;75.53;99844.44;5089380;28;20024;-22
2021/08/19 01:33:24;;;;;;;18.02;10.00;;;;;;;21.17;78.12;99817.38;5089066;28;20035;-22
2021/08/19 01:35:50;;;;;;;14.73;10.30;;;;;;;21.44;76.60;99826.75;5089065;28;20042;-22
2021/08/19 01:38:15;;;;;;;14.60;10.20;;;;;;;21.49;76.12;99825.84;5088899;28;20158;-22
2021/08/19 01:40:41;;;;;;;16.08;11.05;;;;;;;21.72;75.17;99837.66;5089450;28;20036;-22
2021/08/19 01:43:09;;;;;;;16.73;11.82;;;;;;;22.04;74.03;99823.22;5070558;28;20039;-22
2021/08/19 01:45:35;;;;;;;14.50;10.35;;;;;;;21.86;73.70;99827.63;5089089;28;20369;-22
2021/08/19 01:48:01;;;;;;;17.45;11.25;;;;;;;21.70;75.29;99823.59;5088781;28;20028;-22
2021/08/19 01:50:26;;;;;;;17.33;11.52;;;;;;;21.61;75.60;99810.69;5088612;28;20403;-22
2021/08/19 01:52:51;;;;;;;15.40;11.63;;;;;;;21.64;75.47;99820.97;5088657;28;20182;-22
2021/08/19 01:55:17;;;;;;;13.52;10.48;;;;;;;21.57;75.42;99817.81;5070434;28;20433;-22
2021/08/19 01:57:43;;;;;;;14.20;10.75;;;;;;;21.43;76.18;99819.69;5088136;28;20482;-22
2021/08/19 02:00:09;;;;;;;13.50;10.98;;;;;;;21.32;75.46;99793.84;5088441;28;20040;-22
2021/08/19 02:02:34;;;;;;;14.30;11.30;;;;;;;21.34;75.76;99799.78;5088299;28;20040;-22
2021/08/19 02:05:00;;;;;;;16.52;11.80;;;;;;;21.84;74.00;99819.81;5070682;28;20400;-23
2021/08/19 02:07:25;;;;;;;12.57;10.07;;;;;;;22.19;70.77;99816.69;5088353;28;20503;-22
2021/08/19 02:09:50;;;;;;;17.10;10.00;;;;;;;21.95;68.59;99812.25;5088885;28;20043;-22
2021/08/19 02:12:16;;;;;;;21.95;10.68;;;;;;;21.97;71.13;99812.78;5088408;28;20093;-22
2021/08/19 02:14:41;;;;;;;15.35;10.88;;;;;;;22.08;69.51;99808.72;5088029;28;20121;-22
2021/08/19 02:17:07;;;;;;;17.67;11.30;;;;;;;22.03;71.32;99806.13;5088130;28;20495;-22
2021/08/19 02:19:32;;;;;;;14.38;11.65;;;;;;;22.06;70.59;99794.66;5088325;28;20799;-22
2021/08/19 02:21:58;;;;;;;16.88;11.18;;;;;;;21.82;70.71;99816.59;5088273;28;20090;-22
2021/08/19 02:24:23;;;;;;;15.90;12.77;;;;;;;21.61;71.43;99816.13;5087936;28;20032;-22
2021/08/19 02:26:48;;;;;;;18.17;13.63;;;;;;;21.21;73.20;99813.00;5087915;28;20043;-22
2021/08/19 02:29:14;;;;;;;15.55;13.45;;;;;;;21.04;73.10;99815.41;5088163;28;20032;-22
2021/08/19 02:31:41;;;;;;;18.00;13.93;;;;;;;20.87;74.28;99816.75;5088332;28;20713;-22
2021/08/19 02:34:07;;;;;;;19.15;14.57;;;;;;;21.18;72.73;99807.34;5087622;28;20028;-22
2021/08/19 02:36:33;;;;;;;16.17;11.73;;;;;;;21.38;71.74;99811.63;5087724;28;20060;-23
2021/08/19 02:38:59;;;;;;;18.30;13.73;;;;;;;21.70;72.17;99820.88;5087901;28;20492;-22
2021/08/19 02:41:24;;;;;;;15.27;11.73;;;;;;;21.33;71.20;99814.41;5087805;28;20024;-22
2021/08/19 02:43:49;;;;;;;16.02;11.13;;;;;;;21.16;71.97;99820.38;5087904;28;20028;-22
2021/08/19 02:46:15;;;;;;;13.43;9.48;;;;;;;20.62;71.35;99817.13;5087589;28;20039;-22
2021/08/19 02:48:41;;;;;;;12.95;8.75;;;;;;;20.75;70.47;99827.22;5088011;28;20032;-22
2021/08/19 02:51:07;;;;;;;11.90;7.90;;;;;;;20.33;70.43;99812.59;5087568;28;20028;-22
2021/08/19 02:53:32;;;;;;;11.27;7.35;;;;;;;19.99;71.77;99823.53;5087428;28;20031;-22
2021/08/19 02:55:58;;;;;;;17.25;7.95;;;;;;;20.22;71.31;99835.44;5087677;28;20028;-22
2021/08/19 02:58:23;;;;;;;12.43;6.80;;;;;;;20.22;70.09;99830.84;5087153;28;20453;-22
2021/08/19 03:00:49;;;;;;;10.50;6.55;;;;;;;20.39;69.55;99830.38;5069820;28;20043;-22
2021/08/19 03:03:14;;;;;;;11.60;6.85;;;;;;;20.44;68.71;99835.72;5087310;28;20032;-22
2021/08/19 03:05:40;;;;;;;10.77;6.32;;;;;;;20.48;69.61;99830.53;5087468;28;20507;-22
2021/08/19 03:08:05;;;;;;;14.32;6.40;;;;;;;20.55;68.59;99838.28;5087144;28;20031;-22
2021/08/19 03:10:31;;;;;;;13.07;7.43;;;;;;;20.25;68.16;99835.69;5087432;28;20411;-22
2021/08/19 03:12:56;;;;;;;12.32;7.43;;;;;;;19.84;69.41;99836.13;5087394;28;20036;-22
2021/08/19 03:15:21;;;;;;;10.98;6.40;;;;;;;19.61;69.88;99824.13;5087452;28;20035;-22
2021/08/19 03:17:47;;;;;;;10.75;6.30;;;;;;;19.37;70.65;99825.97;5069137;28;20031;-22
2021/08/19 03:20:12;;;;;;;11.05;6.45;;;;;;;19.25;71.55;99824.44;5086976;28;20024;-22
2021/08/19 03:22:39;;;;;;;10.65;6.35;;;;;;;18.89;72.83;99826.59;5087632;28;20032;-22
2021/08/19 03:25:07;;;;;;;11.52;6.85;;;;;;;18.75;73.50;99826.38;5087065;28;20027;-22
2021/08/19 03:27:32;;;;;;;;;;;;;;;19.00;72.22;99828.16;5087513;28;20021;-22
2021/08/19 03:29:57;;;;;;;10.88;6.38;;;;;;;18.59;73.61;99827.53;5087131;28;19914;-22
2021/08/19 03:32:23;;;;;;;13.32;7.47;;;;;;;18.40;74.14;99830.84;5086761;28;20035;-22
2021/08/19 03:34:48;;;;;;;13.88;8.55;;;;;;;18.43;74.31;99841.13;5087121;28;20035;-22
2021/08/19 03:37:14;;;;;;;11.27;7.35;;;;;;;18.57;74.30;99829.69;5086964;28;20403;-21
2021/08/19 03:39:39;;;;;;;12.52;7.78;;;;;;;18.69;73.30;99838.28;5086570;28;20032;-22
2021/08/19 03:42:05;;;;;;;11.93;7.32;;;;;;;18.75;72.63;99845.28;5086872;28;20035;-21
2021/08/19 03:44:30;;;;;;;11.13;6.60;;;;;;;18.68;71.96;99828.56;5087039;28;20020;-22
2021/08/19 03:46:56;;;;;;;9.75;6.10;;;;;;;18.83;72.03;99849.31;5086534;28;20027;-22
2021/08/19 03:49:21;;;;;;;10.40;6.38;;;;;;;18.90;71.80;99854.41;5085773;28;20421;-22
2021/08/19 03:51:47;;;;;;;10.82;6.30;;;;;;;18.98;71.28;99851.13;5087487;28;20028;-22
2021/08/19 03:54:12;;;;;;;9.50;5.93;;;;;;;19.05;70.53;99857.03;5086498;28;20032;-22
2021/08/19 03:56:40;;;;;;;9.57;5.40;;;;;;;18.89;70.52;99847.41;5086767;28;20472;-22
2021/08/19 03:59:06;;;;;;;;;;;;;;;19.08;70.81;99867.25;5087434;28;20079;-22
2021/08/19 04:01:32;;;;;;;9.13;5.50;;;;;;;19.18;70.38;99867.19;5086887;28;20311;-22
2021/08/19 04:03:57;;;;;;;8.25;5.57;;;;;;;19.21;70.39;99853.13;5086930;28;20024;-22
2021/08/19 04:06:22;;;;;;;9.10;5.60;;;;;;;19.23;70.11;99860.97;5068802;28;20032;-22
2021/08/19 04:08:48;;;;;;;11.65;6.43;;;;;;;18.81;71.39;99868.50;5086869;28;20499;-22
2021/08/19 04:11:13;;;;;;;11.70;6.22;;;;;;;18.82;71.18;99861.22;5086816;28;20040;-22
2021/08/19 04:13:39;;;;;;;11.13;6.20;;;;;;;18.55;71.79;99861.56;5086977;28;20032;-22
2021/08/19 04:16:06;;;;;;;9.43;5.97;;;;;;;18.74;71.82;99864.47;5086797;28;20055;-21
2021/08/19 04:18:31;;;;;;;11.63;6.50;;;;;;;18.62;70.57;99864.81;5086899;28;20184;-22
2021/08/19 04:20:57;;;;;;;10.63;6.70;;;;;;;18.69;71.55;99865.28;5086885;28;20781;-22
2021/08/19 04:23:22;;;;;;;12.13;6.40;;;;;;;19.04;70.94;99863.50;5086655;28;20496;-22
2021/08/19 04:25:49;;;;;;;12.05;6.35;;;;;;;18.93;69.40;99867.38;5086798;28;20043;-22
2021/08/19 04:28:15;;;;;;;8.30;6.00;;;;;;;18.70;70.17;99872.31;5086358;28;20028;-22
2021/08/19 04:30:40;;;;;;;11.27;5.57;;;;;;;18.66;71.07;99865.88;5086543;28;20561;-22
2021/08/19 04:33:06;;;;;;;11.90;6.28;;;;;;;18.33;71.16;99867.31;5086562;28;20040;-22
2021/08/19 04:35:32;;;;;;;10.95;5.45;;;;;;;18.42;70.69;99879.19;5086552;28;20385;-22
2021/08/19 04:37:57;;;;;;;10.52;5.90;;;;;;;18.42;70.59;99877.28;5087068;28;20519;-21
2021/08/19 04:40:23;;;;;;;9.43;5.63;;;;;;;18.41;70.64;99875.69;5089907;28;20040;-22
2021/08/19 04:42:49;;;;;;;11.23;6.80;;;;;;;18.86;70.82;99875.78;5090082;28;20111;-22
2021/08/19 04:45:14;;;;;;;10.05;5.50;;;;;;;19.38;69.09;99884.38;5090348;28;20419;-22
2021/08/19 04:47:40;;;;;;;7.20;4.80;;;;;;;19.60;67.70;99879.34;5090096;28;20028;-21
2021/08/19 04:50:06;;;;;;;8.63;4.95;;;;;;;19.47;67.21;99885.38;5089831;28;20032;-22
2021/08/19 04:52:31;;;;;;;8.88;5.30;;;;;;;19.39;68.69;99896.78;5089855;28;20028;-22
2021/08/19 04:54:56;;;;;;;8.48;5.35;;;;;;;19.57;68.19;99888.00;5089873;28;20039;-21
2021/08/19 04:57:22;;;;;;;8.02;5.00;;;;;;;19.48;67.33;99870.78;5089965;28;20028;-22
2021/08/19 04:59:47;;;;;;;9.55;4.93;;;;;;;19.91;66.55;99889.91;5089631;28;20061;-22
2021/08/19 05:02:13;;;;;;;8.93;5.47;;;;;;;20.20;66.86;99887.19;5089410;28;20027;-22
2021/08/19 05:04:38;;;;;;;10.57;4.97;;;;;;;19.95;66.08;99888.25;5089510;28;20085;-22
2021/08/19 05:07:04;;;;;;;6.28;4.47;;;;;;;20.18;65.12;99888.56;5089794;28;20561;-22
2021/08/19 05:09:29;;;;;;;11.60;5.13;;;;;;;20.19;63.80;99895.59;5089651;28;20035;-22
2021/08/19 05:11:55;;;;;;;8.98;4.93;;;;;;;20.48;64.23;99909.88;5089645;28;20028;-21
2021/08/19 05:14:20;;;;;;;7.35;4.53;;;;;;;20.50;63.15;99908.81;5089094;28;20031;-22
2021/08/19 05:16:46;;;;;;;8.18;4.30;;;;;;;20.79;63.33;99906.84;5089404;28;20027;-23
2021/08/19 05:19:11;;;;;;;10.30;4.60;;;;;;;20.83;62.84;99905.16;5089719;28;20035;-21
2021/08/19 05:21:39;;;;;;;15.65;8.68;;;;;;;20.99;63.47;99907.69;5071175;28;20027;-21
2021/08/19 05:24:04;;;;;;;;;;;;;;;20.98;63.49;99911.47;5089863;28;20032;-21
2021/08/19 05:26:30;;;;;;;7.38;4.60;;;;;;;20.98;63.24;99906.06;5089298;28;19908;-21
2021/08/19 05:28:55;;;;;;;9.40;5.00;;;;;;;20.98;62.88;99914.19;5089016;28;20035;-21
2021/08/19 05:31:21;;;;;;;8.63;4.25;;;;;;;21.16;61.49;99918.81;5089126;28;20037;-21
2021/08/19 05:33:47;;;;;;;9.10;4.78;;;;;;;21.25;61.09;99913.56;5089172;28;20039;-21
2021/08/19 05:36:13;;;;;;;9.13;4.90;;;;;;;21.38;61.67;99920.13;5088940;28;20040;-21
2021/08/19 05:38:39;;;;;;;10.52;4.53;;;;;;;21.34;60.92;99898.22;5089088;28;20028;-21
2021/08/19 05:41:05;;;;;;;10.82;4.88;;;;;;;21.70;60.66;99921.28;5088981;28;20032;-21
2021/08/19 05:43:30;;;;;;;9.68;4.43;;;;;;;21.78;60.14;99915.19;5089036;28;20468;-21
2021/08/19 05:45:55;;;;;;;10.75;4.53;;;;;;;21.78;60.73;99913.28;5088783;28;20039;-21
2021/08/19 05:48:21;;;;;;;7.32;4.20;;;;;;;21.64;59.25;99915.94;5088450;28;20036;-21
2021/08/19 05:50:46;;;;;;;6.13;4.22;;;;;;;21.89;58.71;99929.41;5088460;28;20036;-21
2021/08/19 05:53:12;;;;;;;10.20;4.78;;;;;;;22.04;60.06;99927.22;5088622;28;20028;-24
2021/08/19 05:55:37;;;;;;;9.30;4.57;;;;;;;21.95;60.02;99931.72;5088359;28;20584;-22
2021/08/19 05:58:03;;;;;;;8.57;4.50;;;;;;;22.20;57.76;99918.78;5088107;28;20059;-21
2021/08/19 06:00:28;;;;;;;8.05;4.18;;;;;;;22.28;57.92;99915.41;5088457;28;20043;-23
2021/08/19 06:02:54;;;;;;;7.28;4.70;;;;;;;22.06;56.61;99903.28;5088262;28;20066;-23
2021/08/19 06:05:19;;;;;;;8.93;4.88;;;;;;;22.44;56.33;99929.50;5088234;28;20051;-22
2021/08/19 06:07:45;;;;;;;9.35;4.38;;;;;;;22.29;56.05;99921.63;5088110;28;20036;-22
2021/08/19 06:10:11;;;;;;;11.52;4.45;;;;;;;22.69;56.20;99924.69;5088430;28;20464;-22
2021/08/19 06:12:37;;;;;;;7.65;4.15;;;;;;;22.28;56.13;99931.72;5088494;28;20732;-22
2021/08/19 06:15:03;;;;;;;9.23;4.28;;;;;;;22.51;56.74;99918.25;5088360;28;20024;-21
2021/08/19 06:17:29;;;;;;;8.90;4.22;;;;;;;22.67;55.51;99927.69;5088211;28;20032;-21
2021/08/19 06:19:54;;;;;;;13.65;5.07;;;;;;;22.74;55.29;99935.44;5088240;28;20652;-21
2021/08/19 06:22:20;;;;;;;7.75;4.18;;;;;;;22.42;54.97;99921.66;5088155;28;20035;-21
2021/08/19 06:24:45;;;;;;;8.35;3.88;;;;;;;22.27;54.28;99941.78;5088264;28;20020;-22
2021/08/19 06:27:10;;;;;;;11.38;4.22;;;;;;;22.22;55.39;99932.88;5087981;28;20085;-21
2021/08/19 06:29:36;;;;;;;6.20;3.90;;;;;;;22.51;53.61;99929.09;5086667;28;20035;-21
2021/08/19 06:32:01;;;;;;;8.00;3.97;;;;;;;22.52;52.41;99923.38;5087762;28;20040;-21
2021/08/19 06:34:28;;;;;;;8.75;4.32;;;;;;;22.63;54.04;99934.84;5087979;28;20050;-21
2021/08/19 06:36:54;;;;;;;15.52;4.90;;;;;;;22.82;53.76;99946.44;5087949;28;20073;-21
2021/08/19 06:39:19;;;;;;;6.50;3.97;;;;;;;22.87;52.15;99943.59;5088010;28;20097;-21
2021/08/19 06:41:45;;;;;;;6.43;3.40;;;;;;;22.87;52.25;99931.91;5087938;28;20040;-21
2021/08/19 06:44:10;;;;;;;9.13;4.28;;;;;;;23.15;52.40;99949.03;5087444;28;20024;-21
2021/08/19 06:46:36;;;;;;;7.43;4.05;;;;;;;22.87;50.24;99940.88;5087747;28;20059;-21
2021/08/19 06:49:01;;;;;;;8.52;4.00;;;;;;;23.21;50.52;99944.25;5087954;28;20036;-21
2021/08/19 06:51:27;;;;;;;8.00;4.00;;;;;;;23.30;51.10;99939.69;5087662;28;20123;-21
2021/08/19 06:53:52;;;;;;;7.50;3.70;;;;;;;23.21;51.17;99931.47;5087657;28;20035;-21
2021/08/19 06:56:18;;;;;;;8.50;3.80;;;;;;;23.67;49.79;99941.28;5087466;28;20036;-21
2021/08/19 06:58:44;;;;;;;6.93;3.80;;;;;;;23.44;48.88;99936.94;5087548;28;20044;-21
2021/08/19 07:01:10;;;;;;;8.63;3.85;;;;;;;23.50;49.53;99932.16;5086679;28;20040;-21
2021/08/19 07:03:35;;;;;;;7.72;4.00;;;;;;;23.72;49.42;99940.34;5087328;28;20081;-21
2021/08/19 07:06:01;;;;;;;10.00;4.20;;;;;;;23.78;49.34;99941.03;5087262;28;20039;-26
2021/08/19 07:08:27;;;;;;;8.30;3.72;;;;;;;23.72;49.46;99936.81;5087584;28;20105;-21
2021/08/19 07:10:52;;;;;;;10.38;4.43;;;;;;;23.95;49.39;99943.91;5087466;28;20055;-21
2021/08/19 07:13:18;;;;;;;6.80;4.10;;;;;;;24.20;46.73;99938.91;5087393;28;20491;-21
2021/08/19 07:15:45;;;;;;;6.63;3.47;;;;;;;24.18;46.45;99949.31;5087282;28;20035;-21
2021/08/19 07:18:10;;;;;;;6.22;3.70;;;;;;;23.79;46.12;99940.75;5087493;28;20784;-21
2021/08/19 07:20:36;;;;;;;6.53;4.32;;;;;;;23.84;47.89;99946.09;5086937;28;20034;-21
2021/08/19 07:23:01;;;;;;;7.70;3.83;;;;;;;24.08;46.75;99938.69;5087382;28;20028;-21
2021/08/19 07:25:27;;;;;;;6.75;4.03;;;;;;;24.45;46.57;99943.66;5087562;28;20027;-21
2021/08/19 07:27:52;;;;;;;6.63;3.78;;;;;;;24.35;44.94;99949.38;5087396;28;20089;-21
2021/08/19 07:30:18;;;;;;;8.98;4.28;;;;;;;24.49;47.70;99951.22;5069028;28;20105;-21
2021/08/19 07:32:43;;;;;;;7.68;4.18;;;;;;;24.39;49.19;99946.84;5087082;28;20121;-21
2021/08/19 07:35:09;;;;;;;7.22;4.03;;;;;;;24.77;48.70;99955.34;5086801;28;20107;-21
2021/08/19 07:37:43;;;;;;;9.82;4.20;;;;;;;24.80;46.90;99941.06;5087044;28;20028;-21
2021/08/19 07:40:09;;;;;;;8.25;3.78;;;;;;;24.93;46.57;99949.44;5069358;28;20024;-21
2021/08/19 07:42:35;;;;;;;7.72;3.90;;;;;;;25.09;45.88;99947.88;5087248;28;20039;-21
2021/08/19 07:45:00;;;;;;;9.00;3.88;;;;;;;25.43;44.75;99951.75;5087283;28;20020;-21
2021/08/19 07:47:25;;;;;;;7.13;3.53;;;;;;;25.65;43.81;99956.25;5086940;28;20035;-21
2021/08/19 07:49:51;;;;;;;7.75;3.38;;;;;;;25.79;43.75;99947.91;5086914;28;20035;-21
2021/08/19 07:52:16;;;;;;;7.35;3.67;;;;;;;25.94;41.28;99952.88;5086706;28;20085;-21
2021/08/19 07:54:42;;;;;;;6.20;3.63;;;;;;;25.86;40.51;99953.66;5086955;28;20031;-21
2021/08/19 07:57:07;;;;;;;7.40;3.40;;;;;;;25.24;40.60;99952.09;5086892;28;20036;-21
2021/08/19 07:59:33;;;;;;;8.07;3.72;;;;;;;25.13;41.13;99948.03;5086647;28;20508;-21
2021/08/19 08:01:59;;;;;;;6.43;3.50;;;;;;;25.22;42.48;99943.41;5086750;28;20714;-21
2021/08/19 08:04:25;;;;;;;9.43;3.70;;;;;;;25.50;42.47;99938.44;5086424;28;20032;-21
2021/08/19 08:06:50;;;;;;;6.93;3.40;;;;;;;25.66;39.21;99955.94;5087028;28;20036;-22
2021/08/19 08:09:16;;;;;;;5.85;2.95;;;;;;;25.51;40.14;99952.91;5086907;28;20032;-21
2021/08/19 08:11:41;;;;;;;4.82;3.20;;;;;;;25.90;41.18;99948.38;5087020;28;20035;-21
2021/08/19 08:14:07;;;;;;;5.68;3.03;;;;;;;25.76;40.61;99943.06;5090324;28;20085;-21
2021/08/19 08:16:32;;;;;;;6.03;3.50;;;;;;;25.63;38.96;99940.19;5090697;28;20035;-21
2021/08/19 08:19:01;;;;;;;6.25;3.40;;;;;;;25.85;37.78;99936.47;5090705;28;20060;-21
2021/08/19 08:21:27;;;;;;;8.18;3.28;;;;;;;25.57;38.08;99938.75;5090748;28;20024;-21
2021/08/19 08:23:53;;;;;;;6.75;3.10;;;;;;;25.24;37.83;99943.91;5090919;28;20468;-21
2021/08/19 08:26:19;;;;;;;7.53;2.85;;;;;;;25.26;39.77;99931.53;5090501;28;20463;-21
2021/08/19 08:28:48;;;;;;;7.25;3.28;;;;;;;25.72;39.95;99926.50;5090366;28;20038;-21
2021/08/19 08:31:13;;;;;;;6.03;3.10;;;;;;;25.49;37.34;99925.13;5090845;28;20951;-21
2021/08/19 08:33:39;;;;;;;6.82;3.53;;;;;;;25.77;37.48;99937.28;5090525;28;20028;-21
2021/08/19 08:36:04;;;;;;;9.00;4.40;;;;;;;26.02;37.49;99930.19;5090066;28;20055;-21
2021/08/19 08:38:31;;;;;;;6.93;3.33;;;;;;;26.32;38.87;99933.00;5090131;28;20063;-21
2021/08/19 08:40:57;;;;;;;8.37;3.27;;;;;;;26.18;38.08;99944.13;5090046;28;20059;-21
2021/08/19 08:43:22;;;;;;;5.80;3.35;;;;;;;26.05;37.42;99928.72;5090157;28;20063;-21
2021/08/19 08:45:49;;;;;;;7.10;3.20;;;;;;;26.11;36.25;99918.41;5090231;28;20108;-23
2021/08/19 08:48:19;;;;;;;10.50;3.20;;;;;;;26.43;40.20;99926.00;5089618;28;20131;-22
2021/08/19 08:50:48;;;;;;;8.30;4.20;;;;;;;26.46;38.91;99928.09;5089884;28;20028;-21
2021/08/19 08:53:14;;;;;;;5.78;3.15;;;;;;;26.54;37.24;99929.19;5089819;28;20031;-21
2021/08/19 08:55:39;;;;;;;5.15;3.10;;;;;;;26.86;37.23;99925.00;5089807;28;20020;-21
2021/08/19 08:58:05;;;;;;;6.47;3.25;;;;;;;27.30;36.40;99929.38;5089557;28;20086;-21
2021/08/19 09:00:31;;;;;;;6.90;2.90;;;;;;;27.43;36.90;99922.84;5071434;28;20036;-21
2021/08/19 09:02:56;;;;;;;7.05;3.78;;;;;;;27.48;36.18;99914.41;5089656;28;20472;-21
2021/08/19 09:05:26;;;;;;;18.90;17.10;;;;;;;27.11;36.91;99919.69;5089831;28;20028;-21
2021/08/19 09:07:56;;;;;;;7.05;3.17;;;;;;;27.36;34.38;99919.81;5089759;28;20020;-22
2021/08/19 09:10:26;;;;;;;6.63;3.28;;;;;;;27.81;33.87;99919.09;5089298;28;20039;-21
2021/08/19 09:12:52;;;;;;;7.10;3.17;;;;;;;28.14;33.67;99921.81;5089676;28;20503;-21
2021/08/19 09:15:19;;;;;;;5.63;3.20;;;;;;;28.28;33.85;99916.03;5089432;28;20128;-21
2021/08/19 09:17:54;;;;;;;8.13;3.67;;;;;;;28.02;33.97;99919.84;5089478;28;20024;-21
2021/08/19 09:20:22;;;;;;;5.80;2.80;;;;;;;28.41;32.42;99914.88;5089496;28;20035;-21
2021/08/19 09:22:57;;;;;;;7.00;3.00;;;;;;;28.45;32.28;99929.50;5089528;28;20040;-21
2021/08/19 09:25:30;;;;;;;5.72;3.15;;;;;;;28.55;32.22;99909.06;5088425;28;20107;-21
2021/08/19 09:28:24;;;;;;;5.20;2.80;;;;;;;28.32;33.43;99916.94;5089371;28;20032;-21
2021/08/19 09:30:49;;;;;;;5.90;3.08;;;;;;;28.53;31.79;99907.81;5089305;28;20727;-21
2021/08/19 09:33:17;;;;;;;5.60;3.20;;;;;;;28.20;34.88;99914.19;5089096;28;20055;-21
2021/08/19 09:35:43;;;;;;;7.63;4.40;;;;;;;28.21;35.02;99915.78;5088994;28;20103;-22
2021/08/19 09:38:19;;;;;;;6.05;3.00;;;;;;;28.62;32.97;99908.50;5088724;28;20031;-21
2021/08/19 09:41:21;;;;;;;5.83;3.10;;;;;;;28.42;33.98;99911.00;5070807;28;20059;-22
2021/08/19 09:43:53;;;;;;;6.28;3.10;;;;;;;28.32;33.99;99905.97;5006692;28;20030;-21
2021/08/19 09:46:30;;;;;;;5.85;3.00;;;;;;;28.00;35.39;99902.16;5075347;28;20040;-22
2021/08/19 09:48:56;;;;;;;6.10;3.15;;;;;;;27.73;33.72;99906.28;5089162;28;20032;-21
2021/08/19 09:51:24;;;;;;;5.07;3.15;;;;;;;28.21;33.53;99902.06;5089015;28;20083;-21
2021/08/19 09:53:59;;;;;;;5.63;2.95;;;;;;;28.71;33.91;99891.91;5088821;28;20518;-21
2021/08/19 09:56:33;;;;;;;5.90;3.15;;;;;;;28.78;34.30;99901.16;5088351;28;20085;-22
2021/08/19 09:59:18;;;;;;;6.55;3.47;;;;;;;28.73;34.39;99893.16;5088327;28;20517;-21
2021/08/19 10:01:44;;;;;;;5.18;3.08;;;;;;;28.97;34.02;99897.81;5088423;28;20389;-21
2021/08/19 10:04:10;;;;;;;7.90;4.15;;;;;;;28.90;32.90;99878.38;5088459;28;20578;-21
2021/08/19 10:06:35;;;;;;;6.22;3.20;;;;;;;29.04;35.40;99891.72;5070515;28;20040;-21
2021/08/19 10:09:01;;;;;;;5.70;3.78;;;;;;;29.05;34.21;99888.63;5070409;28;20024;-21
2021/08/19 10:11:27;;;;;;;8.68;3.60;;;;;;;29.26;33.60;99893.19;5088554;28;20074;-21
2021/08/19 10:13:53;;;;;;;6.78;3.65;;;;;;;29.69;34.42;99882.53;5070388;28;20032;-22
2021/08/19 10:16:18;;;;;;;8.13;3.80;;;;;;;29.94;31.77;99884.03;5070086;28;20020;-21
2021/08/19 10:18:44;;;;;;;8.95;4.03;;;;;;;30.14;33.01;99862.09;5053449;28;20032;-22
2021/08/19 10:21:13;;;;;;;6.32;3.65;;;;;;;29.99;32.26;99863.72;5070185;28;20059;-21
2021/08/19 10:23:40;;;;;;;8.07;4.57;;;;;;;30.18;33.26;99871.22;5088232;28;20038;-21
2021/08/19 10:26:10;;;;;;;7.80;4.13;;;;;;;30.07;32.96;99879.22;5069746;28;20031;-21
2021/08/19 10:28:49;;;;;;;9.25;4.35;;;;;;;29.47;35.04;99879.22;5088429;28;20059;-21
2021/08/19 10:31:53;;;;;;;6.47;4.65;;;;;;;29.36;34.37;99869.88;5087898;28;20495;-21
2021/08/19 10:34:40;;;;;;;8.48;4.47;;;;;;;29.47;32.50;99859.22;5005414;28;20150;-21
2021/08/19 10:37:06;;;;;;;8.75;4.25;;;;;;;29.32;33.57;99877.22;4992155;28;20030;-22
2021/08/19 10:39:31;;;;;;;8.00;4.30;;;;;;;29.33;35.28;99870.59;5055949;28;20044;-22
2021/08/19 10:41:57;;;;;;;8.00;4.63;;;;;;;29.58;34.61;99860.28;5087732;28;20452;-22
2021/08/19 10:44:35;;;;;;;6.28;3.95;;;;;;;29.38;34.27;99868.41;5087530;28;20409;-21
2021/08/19 10:47:01;;;;;;;7.22;4.43;;;;;;;29.31;34.66;99864.66;5088258;28;20059;-22
2021/08/19 10:49:30;;;;;;;7.18;3.97;;;;;;;30.07;32.49;99870.19;5069922;28;20028;-21
2021/08/19 10:52:07;;;;;;;5.88;3.85;;;;;;;30.22;33.83;99861.16;5087852;28;20044;-22
2021/08/19 10:54:34;;;;;;;;;;;;;;;30.54;33.17;99850.09;5087906;28;20043;-21
2021/08/19 10:56:59;;;;;;;9.23;3.97;;;;;;;30.58;34.07;99864.75;5087687;28;19920;-21
2021/08/19 10:59:32;;;;;;;8.00;4.20;;;;;;;29.85;32.39;99839.41;5052460;28;20060;-21
2021/08/19 11:01:59;;;;;;;10.27;4.15;;;;;;;30.42;33.03;99851.81;5087572;28;20031;-21
2021/08/19 11:04:44;;;;;;;8.18;4.25;;;;;;;29.90;31.88;99858.41;5087236;28;20032;-21
2021/08/19 11:07:10;;;;;;;7.22;3.92;;;;;;;29.71;34.12;99858.28;5087382;28;20032;-21
2021/08/19 11:09:36;;;;;;;7.15;4.50;;;;;;;30.17;32.80;99842.16;5087507;28;20465;-21
2021/08/19 11:12:05;;;;;;;9.40;4.47;;;;;;;30.38;34.45;99831.69;5087271;28;20035;-21
2021/08/19 11:14:31;;;;;;;7.72;4.55;;;;;;;30.50;33.12;99830.75;5087361;28;20028;-21
2021/08/19 11:16:58;;;;;;;6.78;4.35;;;;;;;30.51;32.98;99839.81;5087318;28;20027;-21
2021/08/19 11:19:27;;;;;;;7.45;4.97;;;;;;;30.87;31.84;99837.81;5087088;28;20028;-21
2021/08/19 11:22:01;;;;;;;7.03;4.22;;;;;;;30.96;31.12;99821.94;5087266;28;20054;-21
2021/08/19 11:24:27;;;;;;;9.20;4.32;;;;;;;31.52;31.05;99832.47;5087331;28;20044;-21
2021/08/19 11:26:55;;;;;;;8.77;5.03;;;;;;;31.58;30.41;99831.00;5087268;28;20404;-21